sensor_id;sensor_type;location;lat;lon;timestamp;P1;durP1;ratioP1;P2;durP2;ratioP2
568;SDS011;269;48.884;9.192;2022-10-28T00:01:07;8.63;;;5.47;;
568;SDS011;269;48.884;9.192;2022-10-28T00:03:36;6.50;;;5.73;;
568;SDS011;269;48.884;9.192;2022-10-28T00:06:06;10.27;;;6.17;;
568;SDS011;269;48.884;9.192;2022-10-28T00:08:35;7.90;;;6.00;;
568;SDS011;269;48.884;9.192;2022-10-28T00:11:03;9.97;;;5.60;;
568;SDS011;269;48.884;9.192;2022-10-28T00:13:31;10.03;;;6.20;;
568;SDS011;269;48.884;9.192;2022-10-28T00:16:02;9.90;;;6.00;;
568;SDS011;269;48.884;9.192;2022-10-28T00:18:30;8.13;;;6.30;;
568;SDS011;269;48.884;9.192;2022-10-28T00:20:58;10.90;;;6.27;;
568;SDS011;269;48.884;9.192;2022-10-28T00:23:29;10.70;;;7.10;;
568;SDS011;269;48.884;9.192;2022-10-28T00:26:02;8.13;;;6.17;;
568;SDS011;269;48.884;9.192;2022-10-28T00:28:30;7.40;;;6.23;;
568;SDS011;269;48.884;9.192;2022-10-28T00:31:01;7.50;;;6.30;;
568;SDS011;269;48.884;9.192;2022-10-28T00:33:30;8.97;;;5.57;;
568;SDS011;269;48.884;9.192;2022-10-28T00:36:05;8.00;;;5.40;;
568;SDS011;269;48.884;9.192;2022-10-28T00:38:34;9.93;;;6.20;;
568;SDS011;269;48.884;9.192;2022-10-28T00:41:02;6.87;;;5.60;;
568;SDS011;269;48.884;9.192;2022-10-28T00:43:36;8.10;;;5.43;;
568;SDS011;269;48.884;9.192;2022-10-28T00:46:06;13.43;;;6.37;;
568;SDS011;269;48.884;9.192;2022-10-28T00:48:42;9.97;;;6.33;;
568;SDS011;269;48.884;9.192;2022-10-28T00:51:12;11.63;;;5.70;;
568;SDS011;269;48.884;9.192;2022-10-28T00:53:42;8.43;;;5.53;;
568;SDS011;269;48.884;9.192;2022-10-28T00:56:12;7.53;;;5.70;;
568;SDS011;269;48.884;9.192;2022-10-28T00:58:42;8.37;;;5.97;;
568;SDS011;269;48.884;9.192;2022-10-28T01:01:10;8.30;;;6.43;;
568;SDS011;269;48.884;9.192;2022-10-28T01:03:37;7.23;;;5.77;;
568;SDS011;269;48.884;9.192;2022-10-28T01:06:05;10.60;;;6.23;;
568;SDS011;269;48.884;9.192;2022-10-28T01:08:33;7.10;;;5.90;;
568;SDS011;269;48.884;9.192;2022-10-28T01:11:06;8.20;;;6.13;;
568;SDS011;269;48.884;9.192;2022-10-28T01:13:42;7.63;;;5.63;;
568;SDS011;269;48.884;9.192;2022-10-28T01:16:25;9.97;;;6.00;;
568;SDS011;269;48.884;9.192;2022-10-28T01:22:28;9.63;;;5.80;;
568;SDS011;269;48.884;9.192;2022-10-28T01:28:19;8.03;;;5.50;;
568;SDS011;269;48.884;9.192;2022-10-28T01:31:23;7.87;;;5.20;;
568;SDS011;269;48.884;9.192;2022-10-28T01:34:01;6.10;;;5.27;;
568;SDS011;269;48.884;9.192;2022-10-28T01:36:37;9.73;;;5.57;;
568;SDS011;269;48.884;9.192;2022-10-28T01:39:11;6.53;;;5.50;;
568;SDS011;269;48.884;9.192;2022-10-28T01:41:47;7.70;;;5.53;;
568;SDS011;269;48.884;9.192;2022-10-28T01:44:20;10.73;;;6.27;;
568;SDS011;269;48.884;9.192;2022-10-28T01:46:56;6.70;;;5.53;;
568;SDS011;269;48.884;9.192;2022-10-28T01:49:29;7.00;;;5.40;;
568;SDS011;269;48.884;9.192;2022-10-28T01:52:04;6.80;;;5.33;;
568;SDS011;269;48.884;9.192;2022-10-28T01:54:35;8.63;;;6.27;;
568;SDS011;269;48.884;9.192;2022-10-28T01:57:05;7.10;;;5.47;;
568;SDS011;269;48.884;9.192;2022-10-28T01:59:34;8.97;;;6.40;;
568;SDS011;269;48.884;9.192;2022-10-28T02:02:05;7.60;;;6.33;;
568;SDS011;269;48.884;9.192;2022-10-28T02:04:32;9.57;;;6.10;;
568;SDS011;269;48.884;9.192;2022-10-28T02:06:59;8.90;;;5.70;;
568;SDS011;269;48.884;9.192;2022-10-28T02:09:31;6.73;;;5.70;;
568;SDS011;269;48.884;9.192;2022-10-28T02:12:15;8.23;;;5.83;;
568;SDS011;269;48.884;9.192;2022-10-28T02:17:46;7.10;;;5.70;;
568;SDS011;269;48.884;9.192;2022-10-28T02:20:25;11.77;;;6.00;;
568;SDS011;269;48.884;9.192;2022-10-28T02:23:03;7.47;;;6.53;;
568;SDS011;269;48.884;9.192;2022-10-28T02:25:41;7.00;;;6.30;;
568;SDS011;269;48.884;9.192;2022-10-28T02:28:14;9.63;;;6.10;;
568;SDS011;269;48.884;9.192;2022-10-28T02:30:45;8.47;;;6.30;;
568;SDS011;269;48.884;9.192;2022-10-28T02:33:19;11.00;;;7.43;;
568;SDS011;269;48.884;9.192;2022-10-28T02:35:50;8.27;;;6.00;;
568;SDS011;269;48.884;9.192;2022-10-28T02:38:22;10.73;;;6.57;;
568;SDS011;269;48.884;9.192;2022-10-28T02:40:54;6.87;;;5.10;;
568;SDS011;269;48.884;9.192;2022-10-28T02:43:25;9.40;;;5.53;;
568;SDS011;269;48.884;9.192;2022-10-28T02:45:56;7.30;;;5.60;;
568;SDS011;269;48.884;9.192;2022-10-28T02:48:27;8.37;;;5.23;;
568;SDS011;269;48.884;9.192;2022-10-28T02:50:59;7.63;;;5.40;;
568;SDS011;269;48.884;9.192;2022-10-28T02:53:32;5.27;;;4.77;;
568;SDS011;269;48.884;9.192;2022-10-28T02:56:07;6.60;;;5.20;;
568;SDS011;269;48.884;9.192;2022-10-28T02:58:38;6.97;;;4.57;;
568;SDS011;269;48.884;9.192;2022-10-28T03:01:06;5.97;;;5.20;;
568;SDS011;269;48.884;9.192;2022-10-28T03:03:35;7.13;;;4.70;;
568;SDS011;269;48.884;9.192;2022-10-28T03:06:02;10.50;;;5.50;;
568;SDS011;269;48.884;9.192;2022-10-28T03:08:29;6.20;;;4.97;;
568;SDS011;269;48.884;9.192;2022-10-28T03:10:57;10.00;;;5.70;;
568;SDS011;269;48.884;9.192;2022-10-28T03:13:24;6.30;;;4.77;;
568;SDS011;269;48.884;9.192;2022-10-28T03:15:51;5.93;;;5.20;;
568;SDS011;269;48.884;9.192;2022-10-28T03:18:18;11.20;;;5.57;;
568;SDS011;269;48.884;9.192;2022-10-28T03:20:47;8.30;;;4.90;;
568;SDS011;269;48.884;9.192;2022-10-28T03:23:14;6.87;;;5.57;;
568;SDS011;269;48.884;9.192;2022-10-28T03:25:41;7.27;;;5.50;;
568;SDS011;269;48.884;9.192;2022-10-28T03:28:09;8.77;;;5.10;;
568;SDS011;269;48.884;9.192;2022-10-28T03:30:36;5.90;;;5.03;;
568;SDS011;269;48.884;9.192;2022-10-28T03:33:03;7.13;;;4.90;;
568;SDS011;269;48.884;9.192;2022-10-28T03:35:30;8.43;;;5.30;;
568;SDS011;269;48.884;9.192;2022-10-28T03:37:59;9.13;;;6.37;;
568;SDS011;269;48.884;9.192;2022-10-28T03:40:26;7.63;;;5.77;;
568;SDS011;269;48.884;9.192;2022-10-28T03:42:53;6.53;;;5.60;;
568;SDS011;269;48.884;9.192;2022-10-28T03:45:20;11.63;;;5.80;;
568;SDS011;269;48.884;9.192;2022-10-28T03:47:47;6.97;;;5.70;;
568;SDS011;269;48.884;9.192;2022-10-28T03:50:14;8.23;;;5.93;;
568;SDS011;269;48.884;9.192;2022-10-28T03:52:42;6.80;;;6.00;;
568;SDS011;269;48.884;9.192;2022-10-28T03:55:11;10.07;;;6.10;;
568;SDS011;269;48.884;9.192;2022-10-28T03:57:38;8.63;;;5.40;;
568;SDS011;269;48.884;9.192;2022-10-28T04:00:05;8.87;;;5.40;;
568;SDS011;269;48.884;9.192;2022-10-28T04:02:33;8.53;;;5.93;;
568;SDS011;269;48.884;9.192;2022-10-28T04:05:00;8.50;;;5.60;;
568;SDS011;269;48.884;9.192;2022-10-28T04:07:27;6.77;;;4.90;;
568;SDS011;269;48.884;9.192;2022-10-28T04:09:54;8.40;;;5.23;;
568;SDS011;269;48.884;9.192;2022-10-28T04:12:25;6.27;;;5.20;;
568;SDS011;269;48.884;9.192;2022-10-28T04:14:52;7.60;;;5.00;;
568;SDS011;269;48.884;9.192;2022-10-28T04:17:19;12.20;;;6.03;;
568;SDS011;269;48.884;9.192;2022-10-28T04:19:48;6.93;;;4.80;;
568;SDS011;269;48.884;9.192;2022-10-28T04:22:15;7.00;;;3.80;;
568;SDS011;269;48.884;9.192;2022-10-28T04:24:42;6.63;;;4.90;;
568;SDS011;269;48.884;9.192;2022-10-28T04:27:09;6.37;;;4.53;;
568;SDS011;269;48.884;9.192;2022-10-28T04:29:39;5.53;;;5.03;;
568;SDS011;269;48.884;9.192;2022-10-28T04:32:07;6.90;;;4.43;;
568;SDS011;269;48.884;9.192;2022-10-28T04:34:35;7.37;;;5.00;;
568;SDS011;269;48.884;9.192;2022-10-28T04:37:02;7.20;;;4.90;;
568;SDS011;269;48.884;9.192;2022-10-28T04:39:30;5.93;;;4.30;;
568;SDS011;269;48.884;9.192;2022-10-28T04:41:57;5.87;;;4.50;;
568;SDS011;269;48.884;9.192;2022-10-28T04:44:24;8.17;;;4.87;;
568;SDS011;269;48.884;9.192;2022-10-28T04:46:52;6.87;;;4.90;;
568;SDS011;269;48.884;9.192;2022-10-28T04:49:21;7.73;;;5.40;;
568;SDS011;269;48.884;9.192;2022-10-28T04:51:48;6.47;;;4.60;;
568;SDS011;269;48.884;9.192;2022-10-28T04:54:15;7.93;;;5.60;;
568;SDS011;269;48.884;9.192;2022-10-28T04:56:42;5.70;;;5.10;;
568;SDS011;269;48.884;9.192;2022-10-28T04:59:10;5.43;;;4.90;;
568;SDS011;269;48.884;9.192;2022-10-28T05:01:37;7.67;;;5.27;;
568;SDS011;269;48.884;9.192;2022-10-28T05:04:05;7.57;;;4.97;;
568;SDS011;269;48.884;9.192;2022-10-28T05:06:33;7.43;;;5.50;;
568;SDS011;269;48.884;9.192;2022-10-28T05:09:00;6.07;;;5.13;;
568;SDS011;269;48.884;9.192;2022-10-28T05:11:27;9.23;;;5.60;;
568;SDS011;269;48.884;9.192;2022-10-28T05:13:55;5.67;;;5.17;;
568;SDS011;269;48.884;9.192;2022-10-28T05:16:23;8.90;;;6.13;;
568;SDS011;269;48.884;9.192;2022-10-28T05:18:50;6.40;;;4.97;;
568;SDS011;269;48.884;9.192;2022-10-28T05:21:18;10.13;;;5.13;;
568;SDS011;269;48.884;9.192;2022-10-28T05:23:46;8.23;;;5.63;;
568;SDS011;269;48.884;9.192;2022-10-28T05:26:13;9.10;;;6.23;;
568;SDS011;269;48.884;9.192;2022-10-28T05:28:40;6.80;;;6.10;;
568;SDS011;269;48.884;9.192;2022-10-28T05:31:07;9.57;;;6.20;;
568;SDS011;269;48.884;9.192;2022-10-28T05:33:35;9.20;;;6.80;;
568;SDS011;269;48.884;9.192;2022-10-28T05:36:03;7.80;;;6.33;;
568;SDS011;269;48.884;9.192;2022-10-28T05:38:32;8.40;;;6.03;;
568;SDS011;269;48.884;9.192;2022-10-28T05:40:59;8.50;;;5.50;;
568;SDS011;269;48.884;9.192;2022-10-28T05:43:28;8.27;;;5.43;;
568;SDS011;269;48.884;9.192;2022-10-28T05:45:55;8.90;;;6.07;;
568;SDS011;269;48.884;9.192;2022-10-28T05:48:23;5.90;;;5.23;;
568;SDS011;269;48.884;9.192;2022-10-28T05:50:51;6.03;;;5.43;;
568;SDS011;269;48.884;9.192;2022-10-28T05:53:18;9.93;;;5.87;;
568;SDS011;269;48.884;9.192;2022-10-28T05:55:46;14.03;;;6.10;;
568;SDS011;269;48.884;9.192;2022-10-28T05:58:14;8.17;;;6.03;;
568;SDS011;269;48.884;9.192;2022-10-28T06:00:43;10.10;;;6.33;;
568;SDS011;269;48.884;9.192;2022-10-28T06:03:10;11.80;;;6.30;;
568;SDS011;269;48.884;9.192;2022-10-28T06:05:38;10.37;;;5.97;;
568;SDS011;269;48.884;9.192;2022-10-28T06:08:07;10.30;;;5.80;;
568;SDS011;269;48.884;9.192;2022-10-28T06:10:35;7.40;;;5.90;;
568;SDS011;269;48.884;9.192;2022-10-28T06:13:04;9.10;;;6.03;;
568;SDS011;269;48.884;9.192;2022-10-28T06:15:31;8.33;;;5.27;;
568;SDS011;269;48.884;9.192;2022-10-28T06:17:59;8.63;;;5.20;;
568;SDS011;269;48.884;9.192;2022-10-28T06:20:26;10.00;;;6.10;;
568;SDS011;269;48.884;9.192;2022-10-28T06:22:53;8.10;;;5.70;;
568;SDS011;269;48.884;9.192;2022-10-28T06:25:21;9.13;;;5.70;;
568;SDS011;269;48.884;9.192;2022-10-28T06:27:51;9.33;;;5.90;;
568;SDS011;269;48.884;9.192;2022-10-28T06:30:20;10.90;;;6.13;;
568;SDS011;269;48.884;9.192;2022-10-28T06:32:47;10.60;;;5.60;;
568;SDS011;269;48.884;9.192;2022-10-28T06:35:15;8.23;;;4.80;;
568;SDS011;269;48.884;9.192;2022-10-28T06:37:42;10.70;;;5.30;;
568;SDS011;269;48.884;9.192;2022-10-28T06:40:10;7.00;;;5.60;;
568;SDS011;269;48.884;9.192;2022-10-28T06:42:37;8.53;;;5.80;;
568;SDS011;269;48.884;9.192;2022-10-28T06:45:05;7.00;;;5.30;;
568;SDS011;269;48.884;9.192;2022-10-28T06:47:34;8.17;;;5.63;;
568;SDS011;269;48.884;9.192;2022-10-28T06:50:01;8.83;;;5.50;;
568;SDS011;269;48.884;9.192;2022-10-28T06:52:29;10.83;;;4.87;;
568;SDS011;269;48.884;9.192;2022-10-28T06:54:56;12.13;;;5.70;;
568;SDS011;269;48.884;9.192;2022-10-28T06:57:23;7.53;;;5.00;;
568;SDS011;269;48.884;9.192;2022-10-28T06:59:50;7.37;;;4.93;;
568;SDS011;269;48.884;9.192;2022-10-28T07:02:17;7.50;;;4.90;;
568;SDS011;269;48.884;9.192;2022-10-28T07:04:46;8.30;;;5.23;;
568;SDS011;269;48.884;9.192;2022-10-28T07:07:13;8.03;;;5.13;;
568;SDS011;269;48.884;9.192;2022-10-28T07:09:42;8.03;;;5.40;;
568;SDS011;269;48.884;9.192;2022-10-28T07:12:09;5.37;;;4.87;;
568;SDS011;269;48.884;9.192;2022-10-28T07:14:55;5.80;;;5.20;;
568;SDS011;269;48.884;9.192;2022-10-28T07:17:22;7.70;;;4.90;;
568;SDS011;269;48.884;9.192;2022-10-28T07:19:52;7.53;;;4.93;;
568;SDS011;269;48.884;9.192;2022-10-28T07:22:19;6.93;;;5.20;;
568;SDS011;269;48.884;9.192;2022-10-28T07:24:46;8.93;;;4.60;;
568;SDS011;269;48.884;9.192;2022-10-28T07:27:13;6.17;;;4.70;;
568;SDS011;269;48.884;9.192;2022-10-28T07:29:40;10.23;;;5.23;;
568;SDS011;269;48.884;9.192;2022-10-28T07:32:07;9.87;;;5.40;;
568;SDS011;269;48.884;9.192;2022-10-28T07:34:34;9.43;;;5.30;;
568;SDS011;269;48.884;9.192;2022-10-28T07:37:03;10.57;;;4.93;;
568;SDS011;269;48.884;9.192;2022-10-28T07:39:31;7.97;;;5.20;;
568;SDS011;269;48.884;9.192;2022-10-28T07:41:58;7.80;;;4.90;;
568;SDS011;269;48.884;9.192;2022-10-28T07:44:25;9.13;;;5.37;;
568;SDS011;269;48.884;9.192;2022-10-28T07:46:53;10.53;;;4.70;;
568;SDS011;269;48.884;9.192;2022-10-28T07:49:20;7.80;;;5.00;;
568;SDS011;269;48.884;9.192;2022-10-28T07:51:48;6.67;;;5.00;;
568;SDS011;269;48.884;9.192;2022-10-28T07:54:17;7.57;;;5.00;;
568;SDS011;269;48.884;9.192;2022-10-28T07:56:45;6.90;;;4.53;;
568;SDS011;269;48.884;9.192;2022-10-28T07:59:12;6.93;;;4.67;;
568;SDS011;269;48.884;9.192;2022-10-28T08:01:39;12.10;;;5.43;;
568;SDS011;269;48.884;9.192;2022-10-28T08:04:06;6.53;;;4.70;;
568;SDS011;269;48.884;9.192;2022-10-28T08:06:33;11.57;;;5.60;;
568;SDS011;269;48.884;9.192;2022-10-28T08:09:02;6.47;;;4.27;;
568;SDS011;269;48.884;9.192;2022-10-28T08:11:31;8.03;;;5.13;;
568;SDS011;269;48.884;9.192;2022-10-28T08:14:00;9.63;;;4.97;;
568;SDS011;269;48.884;9.192;2022-10-28T08:16:28;8.40;;;5.10;;
568;SDS011;269;48.884;9.192;2022-10-28T08:18:55;6.83;;;5.10;;
568;SDS011;269;48.884;9.192;2022-10-28T08:21:22;7.53;;;5.10;;
568;SDS011;269;48.884;9.192;2022-10-28T08:23:52;8.77;;;5.00;;
568;SDS011;269;48.884;9.192;2022-10-28T08:26:19;9.07;;;4.90;;
568;SDS011;269;48.884;9.192;2022-10-28T08:28:47;6.67;;;5.23;;
568;SDS011;269;48.884;9.192;2022-10-28T08:31:15;8.73;;;4.80;;
568;SDS011;269;48.884;9.192;2022-10-28T08:33:42;7.27;;;5.10;;
568;SDS011;269;48.884;9.192;2022-10-28T08:36:11;9.50;;;5.63;;
568;SDS011;269;48.884;9.192;2022-10-28T08:38:41;6.53;;;4.80;;
568;SDS011;269;48.884;9.192;2022-10-28T08:41:13;7.63;;;5.03;;
568;SDS011;269;48.884;9.192;2022-10-28T08:43:57;6.37;;;4.90;;
568;SDS011;269;48.884;9.192;2022-10-28T08:46:44;9.50;;;4.60;;
568;SDS011;269;48.884;9.192;2022-10-28T08:49:21;5.60;;;4.37;;
568;SDS011;269;48.884;9.192;2022-10-28T08:51:50;6.27;;;4.90;;
568;SDS011;269;48.884;9.192;2022-10-28T08:54:20;8.87;;;4.37;;
568;SDS011;269;48.884;9.192;2022-10-28T08:56:52;8.23;;;4.80;;
568;SDS011;269;48.884;9.192;2022-10-28T08:59:24;8.50;;;4.53;;
568;SDS011;269;48.884;9.192;2022-10-28T09:01:55;6.53;;;4.80;;
568;SDS011;269;48.884;9.192;2022-10-28T09:04:27;6.13;;;4.20;;
568;SDS011;269;48.884;9.192;2022-10-28T09:07:01;6.60;;;4.00;;
568;SDS011;269;48.884;9.192;2022-10-28T09:09:29;6.83;;;4.20;;
568;SDS011;269;48.884;9.192;2022-10-28T09:12:01;5.60;;;4.30;;
568;SDS011;269;48.884;9.192;2022-10-28T09:14:39;5.67;;;3.70;;
568;SDS011;269;48.884;9.192;2022-10-28T09:17:23;5.63;;;4.00;;
568;SDS011;269;48.884;9.192;2022-10-28T09:19:59;8.17;;;4.17;;
568;SDS011;269;48.884;9.192;2022-10-28T09:22:37;8.70;;;4.40;;
568;SDS011;269;48.884;9.192;2022-10-28T09:25:14;5.30;;;3.90;;
568;SDS011;269;48.884;9.192;2022-10-28T09:27:50;7.27;;;4.57;;
568;SDS011;269;48.884;9.192;2022-10-28T09:30:30;6.53;;;4.40;;
568;SDS011;269;48.884;9.192;2022-10-28T09:33:06;8.67;;;4.20;;
568;SDS011;269;48.884;9.192;2022-10-28T09:35:44;4.20;;;3.73;;
568;SDS011;269;48.884;9.192;2022-10-28T09:38:14;6.30;;;4.70;;
568;SDS011;269;48.884;9.192;2022-10-28T09:40:51;6.37;;;4.30;;
568;SDS011;269;48.884;9.192;2022-10-28T09:43:23;9.03;;;5.30;;
568;SDS011;269;48.884;9.192;2022-10-28T09:45:56;7.13;;;3.90;;
568;SDS011;269;48.884;9.192;2022-10-28T09:48:28;6.07;;;4.33;;
568;SDS011;269;48.884;9.192;2022-10-28T09:50:57;6.60;;;3.93;;
568;SDS011;269;48.884;9.192;2022-10-28T09:53:29;10.40;;;3.97;;
568;SDS011;269;48.884;9.192;2022-10-28T09:56:05;9.57;;;4.30;;
568;SDS011;269;48.884;9.192;2022-10-28T09:58:32;6.90;;;4.17;;
568;SDS011;269;48.884;9.192;2022-10-28T10:01:02;6.37;;;3.93;;
568;SDS011;269;48.884;9.192;2022-10-28T10:03:30;6.20;;;4.60;;
568;SDS011;269;48.884;9.192;2022-10-28T10:05:59;4.80;;;4.07;;
568;SDS011;269;48.884;9.192;2022-10-28T10:08:31;6.90;;;4.30;;
568;SDS011;269;48.884;9.192;2022-10-28T10:11:00;5.57;;;4.10;;
568;SDS011;269;48.884;9.192;2022-10-28T10:13:31;5.47;;;4.10;;
568;SDS011;269;48.884;9.192;2022-10-28T10:16:03;3.90;;;3.30;;
568;SDS011;269;48.884;9.192;2022-10-28T10:18:38;7.23;;;4.17;;
568;SDS011;269;48.884;9.192;2022-10-28T10:21:11;4.80;;;3.70;;
568;SDS011;269;48.884;9.192;2022-10-28T10:23:39;5.00;;;3.77;;
568;SDS011;269;48.884;9.192;2022-10-28T10:26:06;7.07;;;4.10;;
568;SDS011;269;48.884;9.192;2022-10-28T10:28:37;6.70;;;4.17;;
568;SDS011;269;48.884;9.192;2022-10-28T10:31:15;5.90;;;3.60;;
568;SDS011;269;48.884;9.192;2022-10-28T10:33:47;6.37;;;4.47;;
568;SDS011;269;48.884;9.192;2022-10-28T10:36:16;9.83;;;4.00;;
568;SDS011;269;48.884;9.192;2022-10-28T10:38:48;5.53;;;3.97;;
568;SDS011;269;48.884;9.192;2022-10-28T10:41:31;6.63;;;4.80;;
568;SDS011;269;48.884;9.192;2022-10-28T10:44:00;7.60;;;4.10;;
568;SDS011;269;48.884;9.192;2022-10-28T10:46:29;7.20;;;4.00;;
568;SDS011;269;48.884;9.192;2022-10-28T10:49:05;7.53;;;5.27;;
568;SDS011;269;48.884;9.192;2022-10-28T10:51:37;12.20;;;4.43;;
568;SDS011;269;48.884;9.192;2022-10-28T10:54:11;8.53;;;4.20;;
568;SDS011;269;48.884;9.192;2022-10-28T10:56:40;5.90;;;4.10;;
568;SDS011;269;48.884;9.192;2022-10-28T10:59:14;10.60;;;4.50;;
568;SDS011;269;48.884;9.192;2022-10-28T11:01:47;6.37;;;3.43;;
568;SDS011;269;48.884;9.192;2022-10-28T11:04:14;8.60;;;4.60;;
568;SDS011;269;48.884;9.192;2022-10-28T11:06:43;4.83;;;4.33;;
568;SDS011;269;48.884;9.192;2022-10-28T11:09:17;6.00;;;4.23;;
568;SDS011;269;48.884;9.192;2022-10-28T11:11:55;8.57;;;4.40;;
568;SDS011;269;48.884;9.192;2022-10-28T11:14:24;6.27;;;4.37;;
568;SDS011;269;48.884;9.192;2022-10-28T11:16:59;7.03;;;4.20;;
568;SDS011;269;48.884;9.192;2022-10-28T11:19:29;8.43;;;4.30;;
568;SDS011;269;48.884;9.192;2022-10-28T11:22:07;6.87;;;3.47;;
568;SDS011;269;48.884;9.192;2022-10-28T11:24:50;7.43;;;4.10;;
568;SDS011;269;48.884;9.192;2022-10-28T11:27:39;7.27;;;4.83;;
568;SDS011;269;48.884;9.192;2022-10-28T11:30:17;7.50;;;4.53;;
568;SDS011;269;48.884;9.192;2022-10-28T11:32:51;8.60;;;5.10;;
568;SDS011;269;48.884;9.192;2022-10-28T11:35:32;7.20;;;3.90;;
568;SDS011;269;48.884;9.192;2022-10-28T11:38:08;9.33;;;4.67;;
568;SDS011;269;48.884;9.192;2022-10-28T11:40:49;7.53;;;4.20;;
568;SDS011;269;48.884;9.192;2022-10-28T11:43:27;7.90;;;4.00;;
568;SDS011;269;48.884;9.192;2022-10-28T11:46:04;6.00;;;4.00;;
568;SDS011;269;48.884;9.192;2022-10-28T11:48:43;5.33;;;3.70;;
568;SDS011;269;48.884;9.192;2022-10-28T11:51:26;5.57;;;3.37;;
568;SDS011;269;48.884;9.192;2022-10-28T11:54:15;5.97;;;4.60;;
568;SDS011;269;48.884;9.192;2022-10-28T11:56:57;5.73;;;3.50;;
568;SDS011;269;48.884;9.192;2022-10-28T11:59:36;7.27;;;4.00;;
568;SDS011;269;48.884;9.192;2022-10-28T12:02:22;4.93;;;3.67;;
568;SDS011;269;48.884;9.192;2022-10-28T12:05:07;5.43;;;3.53;;
568;SDS011;269;48.884;9.192;2022-10-28T12:07:44;8.90;;;3.63;;
568;SDS011;269;48.884;9.192;2022-10-28T12:10:34;5.87;;;3.90;;
568;SDS011;269;48.884;9.192;2022-10-28T12:13:13;6.80;;;4.17;;
568;SDS011;269;48.884;9.192;2022-10-28T12:15:49;9.70;;;4.00;;
568;SDS011;269;48.884;9.192;2022-10-28T12:18:21;6.00;;;4.00;;
568;SDS011;269;48.884;9.192;2022-10-28T12:20:56;5.10;;;3.50;;
568;SDS011;269;48.884;9.192;2022-10-28T12:23:27;9.50;;;3.70;;
568;SDS011;269;48.884;9.192;2022-10-28T12:25:58;4.30;;;3.20;;
568;SDS011;269;48.884;9.192;2022-10-28T12:28:31;6.40;;;3.10;;
568;SDS011;269;48.884;9.192;2022-10-28T12:31:02;5.17;;;3.13;;
568;SDS011;269;48.884;9.192;2022-10-28T12:33:35;7.23;;;3.53;;
568;SDS011;269;48.884;9.192;2022-10-28T12:36:17;6.80;;;3.60;;
568;SDS011;269;48.884;9.192;2022-10-28T12:38:50;5.60;;;3.17;;
568;SDS011;269;48.884;9.192;2022-10-28T12:41:23;8.20;;;3.73;;
568;SDS011;269;48.884;9.192;2022-10-28T12:43:53;4.67;;;2.80;;
568;SDS011;269;48.884;9.192;2022-10-28T12:46:28;5.53;;;2.77;;
568;SDS011;269;48.884;9.192;2022-10-28T12:49:09;6.00;;;3.17;;
568;SDS011;269;48.884;9.192;2022-10-28T12:51:43;7.23;;;3.30;;
568;SDS011;269;48.884;9.192;2022-10-28T12:54:14;4.87;;;2.90;;
568;SDS011;269;48.884;9.192;2022-10-28T12:56:48;3.03;;;2.30;;
568;SDS011;269;48.884;9.192;2022-10-28T12:59:19;4.40;;;2.67;;
568;SDS011;269;48.884;9.192;2022-10-28T13:01:54;5.13;;;3.13;;
568;SDS011;269;48.884;9.192;2022-10-28T13:04:25;6.40;;;2.80;;
568;SDS011;269;48.884;9.192;2022-10-28T13:06:59;6.13;;;3.00;;
568;SDS011;269;48.884;9.192;2022-10-28T13:09:41;4.67;;;3.37;;
568;SDS011;269;48.884;9.192;2022-10-28T13:12:16;4.40;;;3.30;;
568;SDS011;269;48.884;9.192;2022-10-28T13:17:54;7.07;;;3.70;;
568;SDS011;269;48.884;9.192;2022-10-28T13:20:37;11.37;;;3.53;;
568;SDS011;269;48.884;9.192;2022-10-28T13:25:59;8.17;;;3.67;;
568;SDS011;269;48.884;9.192;2022-10-28T13:28:34;7.33;;;3.30;;
568;SDS011;269;48.884;9.192;2022-10-28T13:31:07;6.93;;;3.67;;
568;SDS011;269;48.884;9.192;2022-10-28T13:33:36;6.80;;;3.67;;
568;SDS011;269;48.884;9.192;2022-10-28T13:36:14;7.87;;;3.63;;
568;SDS011;269;48.884;9.192;2022-10-28T13:38:51;8.00;;;3.50;;
568;SDS011;269;48.884;9.192;2022-10-28T13:41:27;6.93;;;3.20;;
568;SDS011;269;48.884;9.192;2022-10-28T13:43:57;7.40;;;3.63;;
568;SDS011;269;48.884;9.192;2022-10-28T13:52:43;4.83;;;3.40;;
568;SDS011;269;48.884;9.192;2022-10-28T13:55:20;6.47;;;4.00;;
568;SDS011;269;48.884;9.192;2022-10-28T13:57:51;6.57;;;3.87;;
568;SDS011;269;48.884;9.192;2022-10-28T14:00:33;9.00;;;4.37;;
568;SDS011;269;48.884;9.192;2022-10-28T14:03:02;7.77;;;3.80;;
568;SDS011;269;48.884;9.192;2022-10-28T14:08:26;7.13;;;3.63;;
568;SDS011;269;48.884;9.192;2022-10-28T14:11:01;8.00;;;4.30;;
568;SDS011;269;48.884;9.192;2022-10-28T14:13:31;6.73;;;3.77;;
568;SDS011;269;48.884;9.192;2022-10-28T14:16:13;6.30;;;3.83;;
568;SDS011;269;48.884;9.192;2022-10-28T14:18:52;8.53;;;3.80;;
568;SDS011;269;48.884;9.192;2022-10-28T14:21:22;7.93;;;4.30;;
568;SDS011;269;48.884;9.192;2022-10-28T14:32:56;8.43;;;3.97;;
568;SDS011;269;48.884;9.192;2022-10-28T14:35:28;6.50;;;4.07;;
568;SDS011;269;48.884;9.192;2022-10-28T14:41:16;7.30;;;4.53;;
568;SDS011;269;48.884;9.192;2022-10-28T14:43:59;7.53;;;4.30;;
568;SDS011;269;48.884;9.192;2022-10-28T14:46:40;9.63;;;4.60;;
568;SDS011;269;48.884;9.192;2022-10-28T14:49:19;7.70;;;3.80;;
568;SDS011;269;48.884;9.192;2022-10-28T14:51:48;7.30;;;3.93;;
568;SDS011;269;48.884;9.192;2022-10-28T14:54:27;6.23;;;4.30;;
568;SDS011;269;48.884;9.192;2022-10-28T14:57:02;9.23;;;4.47;;
568;SDS011;269;48.884;9.192;2022-10-28T14:59:34;7.60;;;3.90;;
568;SDS011;269;48.884;9.192;2022-10-28T15:02:08;7.53;;;4.97;;
568;SDS011;269;48.884;9.192;2022-10-28T15:04:40;6.30;;;4.00;;
568;SDS011;269;48.884;9.192;2022-10-28T15:07:10;5.43;;;3.90;;
568;SDS011;269;48.884;9.192;2022-10-28T15:09:40;5.60;;;3.80;;
568;SDS011;269;48.884;9.192;2022-10-28T15:12:09;5.80;;;4.20;;
568;SDS011;269;48.884;9.192;2022-10-28T15:14:40;7.43;;;4.63;;
568;SDS011;269;48.884;9.192;2022-10-28T15:17:13;10.47;;;4.63;;
568;SDS011;269;48.884;9.192;2022-10-28T15:19:41;8.80;;;4.43;;
568;SDS011;269;48.884;9.192;2022-10-28T15:22:14;7.70;;;4.60;;
568;SDS011;269;48.884;9.192;2022-10-28T15:24:53;9.53;;;4.27;;
568;SDS011;269;48.884;9.192;2022-10-28T15:27:22;6.37;;;4.20;;
568;SDS011;269;48.884;9.192;2022-10-28T15:29:52;7.93;;;5.00;;
568;SDS011;269;48.884;9.192;2022-10-28T15:32:27;7.37;;;4.80;;
568;SDS011;269;48.884;9.192;2022-10-28T15:34:59;5.87;;;4.03;;
568;SDS011;269;48.884;9.192;2022-10-28T15:40:51;10.70;;;5.20;;
568;SDS011;269;48.884;9.192;2022-10-28T15:43:18;9.63;;;5.90;;
568;SDS011;269;48.884;9.192;2022-10-28T15:45:50;7.77;;;6.20;;
568;SDS011;269;48.884;9.192;2022-10-28T15:48:20;8.80;;;5.80;;
568;SDS011;269;48.884;9.192;2022-10-28T15:53:37;7.10;;;5.27;;
568;SDS011;269;48.884;9.192;2022-10-28T15:56:06;7.77;;;5.13;;
568;SDS011;269;48.884;9.192;2022-10-28T15:58:44;6.90;;;5.37;;
568;SDS011;269;48.884;9.192;2022-10-28T16:01:28;8.03;;;5.20;;
568;SDS011;269;48.884;9.192;2022-10-28T16:04:02;9.50;;;4.73;;
568;SDS011;269;48.884;9.192;2022-10-28T16:06:30;8.53;;;4.90;;
568;SDS011;269;48.884;9.192;2022-10-28T16:09:00;8.50;;;4.80;;
568;SDS011;269;48.884;9.192;2022-10-28T16:11:41;10.07;;;4.87;;
568;SDS011;269;48.884;9.192;2022-10-28T16:14:22;12.17;;;4.70;;
568;SDS011;269;48.884;9.192;2022-10-28T16:17:07;11.17;;;5.73;;
568;SDS011;269;48.884;9.192;2022-10-28T16:19:40;8.97;;;5.10;;
568;SDS011;269;48.884;9.192;2022-10-28T16:22:10;7.13;;;4.30;;
568;SDS011;269;48.884;9.192;2022-10-28T16:24:39;8.80;;;4.90;;
568;SDS011;269;48.884;9.192;2022-10-28T16:27:16;8.20;;;4.77;;
568;SDS011;269;48.884;9.192;2022-10-28T16:29:45;8.07;;;4.70;;
568;SDS011;269;48.884;9.192;2022-10-28T16:32:14;9.10;;;5.47;;
568;SDS011;269;48.884;9.192;2022-10-28T16:34:42;8.33;;;4.80;;
568;SDS011;269;48.884;9.192;2022-10-28T16:37:18;10.13;;;5.13;;
568;SDS011;269;48.884;9.192;2022-10-28T16:39:47;8.30;;;5.10;;
568;SDS011;269;48.884;9.192;2022-10-28T16:42:15;6.47;;;4.70;;
568;SDS011;269;48.884;9.192;2022-10-28T16:44:43;6.77;;;4.70;;
568;SDS011;269;48.884;9.192;2022-10-28T16:47:11;9.60;;;5.37;;
568;SDS011;269;48.884;9.192;2022-10-28T16:49:41;8.37;;;4.70;;
568;SDS011;269;48.884;9.192;2022-10-28T16:52:11;7.30;;;4.90;;
568;SDS011;269;48.884;9.192;2022-10-28T16:54:42;6.57;;;4.90;;